createdAt,value
2019-02-26T00:00:33.532Z,5.20
2019-02-26T00:03:06.971Z,5.20
2019-02-26T00:05:40.389Z,5.10
2019-02-26T00:08:17.019Z,5.10
2019-02-26T00:10:50.214Z,5.00
2019-02-26T00:13:25.001Z,5.00
2019-02-26T00:16:03.150Z,4.80
2019-02-26T00:18:34.370Z,4.70
2019-02-26T00:21:07.868Z,4.70
2019-02-26T00:23:42.033Z,4.70
2019-02-26T00:26:17.771Z,4.70
2019-02-26T00:28:51.685Z,4.70
2019-02-26T00:31:26.156Z,4.70
2019-02-26T00:34:00.249Z,4.70
2019-02-26T00:36:35.904Z,4.70
2019-02-26T00:39:08.912Z,4.70
2019-02-26T00:41:42.333Z,4.70
2019-02-26T00:44:15.763Z,4.60
2019-02-26T00:46:49.188Z,4.60
2019-02-26T00:49:23.690Z,4.60
2019-02-26T00:51:57.765Z,4.50
2019-02-26T00:54:31.869Z,4.60
2019-02-26T00:57:08.621Z,4.50
2019-02-26T00:59:43.601Z,4.40
2019-02-26T01:02:16.633Z,4.40
2019-02-26T01:04:50.982Z,4.40
2019-02-26T01:07:26.045Z,4.30
2019-02-26T01:09:59.926Z,4.20
2019-02-26T01:12:35.257Z,4.20
2019-02-26T01:15:13.505Z,4.10
2019-02-26T01:17:46.728Z,4.10
2019-02-26T01:20:24.637Z,4.00
2019-02-26T01:22:55.313Z,4.00
2019-02-26T01:25:28.754Z,3.90
2019-02-26T01:28:02.181Z,3.90
2019-02-26T01:30:36.197Z,3.90
2019-02-26T01:33:10.012Z,4.00
2019-02-26T01:35:43.447Z,4.00
2019-02-26T01:38:18.697Z,4.00
2019-02-26T01:40:53.767Z,4.00
2019-02-26T01:43:27.164Z,4.10
2019-02-26T01:46:00.596Z,4.00
2019-02-26T01:48:36.558Z,4.00
2019-02-26T01:51:10.017Z,4.00
2019-02-26T01:53:46.380Z,4.10
2019-02-26T01:56:19.941Z,4.10
2019-02-26T01:58:56.649Z,4.10
2019-02-26T02:01:28.892Z,4.10
2019-02-26T02:04:02.305Z,4.00
2019-02-26T02:06:37.017Z,4.00
2019-02-26T02:09:13.239Z,3.90
2019-02-26T02:11:46.034Z,3.90
2019-02-26T02:14:19.520Z,3.90
2019-02-26T02:16:52.954Z,3.90
2019-02-26T02:19:27.607Z,3.80
2019-02-26T02:22:01.537Z,3.80
2019-02-26T02:24:38.979Z,3.80
2019-02-26T02:27:10.113Z,3.80
2019-02-26T02:29:44.161Z,3.80
2019-02-26T02:32:20.907Z,3.80
2019-02-26T02:34:58.322Z,3.80
2019-02-26T02:37:30.013Z,3.80
2019-02-26T02:40:06.870Z,3.80
2019-02-26T02:42:42.933Z,3.80
2019-02-26T02:45:20.171Z,3.80
2019-02-26T02:47:54.768Z,3.80
2019-02-26T02:50:25.832Z,3.80
2019-02-26T02:53:01.444Z,3.80
2019-02-26T02:55:34.416Z,3.80
2019-02-26T02:58:07.841Z,3.80
2019-02-26T03:00:41.327Z,3.80
2019-02-26T03:03:14.759Z,3.80
2019-02-26T03:05:48.187Z,3.70
2019-02-26T03:08:22.337Z,3.70
2019-02-26T03:10:56.338Z,3.60
2019-02-26T03:13:29.776Z,3.50
2019-02-26T03:16:03.213Z,3.50
2019-02-26T03:18:36.646Z,3.50
2019-02-26T03:21:10.074Z,3.50
2019-02-26T03:23:45.492Z,3.50
2019-02-26T03:26:20.551Z,3.50
2019-02-26T03:28:53.892Z,3.50
2019-02-26T03:31:33.847Z,3.50
2019-02-26T03:34:08.725Z,3.50
2019-02-26T03:36:40.184Z,3.50
2019-02-26T03:39:12.779Z,3.50
2019-02-26T03:41:48.663Z,3.50
2019-02-26T03:44:23.100Z,3.40
2019-02-26T03:46:56.521Z,3.50
2019-02-26T03:49:29.976Z,3.50
2019-02-26T03:52:03.411Z,3.40
2019-02-26T03:54:39.828Z,3.40
2019-02-26T03:57:14.197Z,3.50
2019-02-26T03:59:47.559Z,3.40
2019-02-26T04:02:23.413Z,3.50
2019-02-26T04:04:57.922Z,3.40
2019-02-26T04:07:33.353Z,3.30
2019-02-26T04:10:08.133Z,3.30
2019-02-26T04:12:42.350Z,3.30
2019-02-26T04:15:19.016Z,3.30
2019-02-26T04:17:52.439Z,3.30
2019-02-26T04:20:27.833Z,3.30
2019-02-26T04:23:01.012Z,3.30
2019-02-26T04:25:37.516Z,3.30
2019-02-26T04:28:44.513Z,3.30
2019-02-26T04:31:36.530Z,3.20
2019-02-26T04:34:15.649Z,3.20
2019-02-26T04:37:10.391Z,3.20
2019-02-26T04:39:47.693Z,3.20
2019-02-26T04:42:32.521Z,3.20
2019-02-26T04:45:20.261Z,3.20
2019-02-26T04:47:58.321Z,3.30
2019-02-26T04:50:35.331Z,3.30
2019-02-26T04:53:10.537Z,3.30
2019-02-26T04:55:44.714Z,3.30
2019-02-26T04:58:20.139Z,3.30
2019-02-26T05:00:52.787Z,3.30
2019-02-26T05:03:26.225Z,3.20
2019-02-26T05:06:02.081Z,3.10
2019-02-26T05:08:37.120Z,3.20
2019-02-26T05:11:14.850Z,3.10
2019-02-26T05:13:45.116Z,3.10
2019-02-26T05:16:18.539Z,3.10
2019-02-26T05:18:54.904Z,3.10
2019-02-26T05:21:29.819Z,3.10
2019-02-26T05:24:03.090Z,3.10
2019-02-26T05:26:36.790Z,3.10
2019-02-26T05:29:11.985Z,3.10
2019-02-26T05:31:45.400Z,3.10
2019-02-26T05:34:20.739Z,3.10
2019-02-26T05:36:53.986Z,3.10
2019-02-26T05:39:28.836Z,3.00
2019-02-26T05:42:04.074Z,3.00
2019-02-26T05:44:37.568Z,3.00
2019-02-26T05:47:13.011Z,3.00
2019-02-26T05:49:46.182Z,3.00
2019-02-26T05:52:21.437Z,3.00
2019-02-26T05:54:54.789Z,3.00
2019-02-26T05:57:32.636Z,3.10
2019-02-26T06:00:05.268Z,3.10
2019-02-26T06:02:40.111Z,3.10
2019-02-26T06:05:14.343Z,3.00
2019-02-26T06:07:49.037Z,3.00
2019-02-26T06:10:24.592Z,3.00
2019-02-26T06:12:57.630Z,3.00
2019-02-26T06:15:31.526Z,3.00
2019-02-26T06:18:06.194Z,3.00
2019-02-26T06:20:39.622Z,3.00
2019-02-26T06:23:13.053Z,3.00
2019-02-26T06:25:46.495Z,3.00
2019-02-26T06:28:20.512Z,3.00
2019-02-26T06:30:55.101Z,2.90
2019-02-26T06:33:31.823Z,3.00
2019-02-26T06:36:04.742Z,3.00
2019-02-26T06:38:39.168Z,3.00
2019-02-26T06:41:12.957Z,3.00
2019-02-26T06:43:48.529Z,3.00
2019-02-26T06:46:21.577Z,3.10
2019-02-26T06:48:55.024Z,3.10
2019-02-26T06:51:30.612Z,3.10
2019-02-26T06:54:03.624Z,3.20
2019-02-26T06:56:41.395Z,3.20
2019-02-26T06:59:12.366Z,3.20
2019-02-26T07:01:45.917Z,3.30
2019-02-26T07:04:19.723Z,3.30
2019-02-26T07:06:55.218Z,3.40
2019-02-26T07:09:28.316Z,3.40
2019-02-26T07:12:01.748Z,3.50
2019-02-26T07:14:35.186Z,3.50
2019-02-26T07:17:08.622Z,3.60
2019-02-26T07:19:42.074Z,3.60
2019-02-26T07:22:16.050Z,3.70
2019-02-26T07:24:51.960Z,3.80
2019-02-26T07:27:26.498Z,3.90
2019-02-26T07:30:00.999Z,3.90
2019-02-26T07:32:36.066Z,4.00
2019-02-26T07:35:11.636Z,4.00
2019-02-26T07:37:45.560Z,4.00
2019-02-26T07:40:18.997Z,4.00
2019-02-26T07:42:52.444Z,4.10
2019-02-26T07:45:27.443Z,4.20
2019-02-26T07:48:01.160Z,4.20
2019-02-26T07:50:37.770Z,4.30
2019-02-26T07:53:09.857Z,4.30
2019-02-26T07:55:43.289Z,4.30
2019-02-26T07:58:17.925Z,4.30
2019-02-26T08:00:52.261Z,4.30
2019-02-26T08:03:26.896Z,4.40
2019-02-26T08:06:04.783Z,4.50
2019-02-26T08:08:37.524Z,4.70
2019-02-26T08:11:11.586Z,4.70
2019-02-26T08:13:45.020Z,4.80
2019-02-26T08:16:20.557Z,4.90
2019-02-26T08:18:54.117Z,5.00
2019-02-26T08:21:29.684Z,5.10
2019-02-26T08:24:03.500Z,5.20
2019-02-26T08:26:38.631Z,5.30
2019-02-26T08:29:12.530Z,5.30
2019-02-26T08:31:47.454Z,5.40
2019-02-26T08:34:21.349Z,5.40
2019-02-26T08:36:54.788Z,5.50
2019-02-26T08:39:28.242Z,5.60
2019-02-26T08:42:09.722Z,5.70
2019-02-26T08:44:46.227Z,5.80
2019-02-26T08:47:20.616Z,5.90
2019-02-26T08:49:53.477Z,6.10
2019-02-26T08:52:29.282Z,6.20
2019-02-26T08:55:02.070Z,6.40
2019-02-26T08:57:35.498Z,6.50
2019-02-26T09:00:21.865Z,6.60
2019-02-26T09:02:56.726Z,6.80
2019-02-26T09:05:33.865Z,6.90
2019-02-26T09:08:07.923Z,7.00
2019-02-26T09:10:41.768Z,7.10
2019-02-26T09:13:16.464Z,7.20
2019-02-26T09:15:51.191Z,7.30
2019-02-26T09:18:27.806Z,7.40
2019-02-26T09:20:59.793Z,7.50
2019-02-26T09:23:33.228Z,7.60
2019-02-26T09:26:07.126Z,7.70
2019-02-26T09:28:40.736Z,7.80
2019-02-26T09:31:14.287Z,7.90
2019-02-26T09:33:47.805Z,8.10
2019-02-26T09:36:23.646Z,8.20
2019-02-26T09:38:56.440Z,8.30
2019-02-26T09:41:29.860Z,8.40
2019-02-26T09:44:04.973Z,8.50
2019-02-26T09:46:39.375Z,8.60
2019-02-26T09:49:13.712Z,8.70
2019-02-26T09:51:47.160Z,8.70
2019-02-26T09:54:22.541Z,8.80
2019-02-26T09:56:55.752Z,8.90
2019-02-26T09:59:31.336Z,9.10
2019-02-26T10:02:06.091Z,9.20
2019-02-26T10:04:39.730Z,9.30
2019-02-26T10:07:14.369Z,9.40
2019-02-26T10:09:48.538Z,9.50
2019-02-26T10:12:22.080Z,9.60
2019-02-26T10:14:59.480Z,9.70
2019-02-26T10:17:32.636Z,9.80
2019-02-26T10:20:09.492Z,9.90
2019-02-26T10:22:43.277Z,10.00
2019-02-26T10:25:16.792Z,10.10
2019-02-26T10:27:50.285Z,10.20
2019-02-26T10:30:23.811Z,10.30
2019-02-26T10:33:10.800Z,10.40
2019-02-26T10:35:45.557Z,10.50
2019-02-26T10:38:19.414Z,10.60
2019-02-26T10:40:56.200Z,10.70
2019-02-26T10:43:28.016Z,10.80
2019-02-26T10:46:01.484Z,10.90
2019-02-26T10:48:34.912Z,11.00
2019-02-26T10:51:08.363Z,11.10
2019-02-26T10:53:41.784Z,11.20
2019-02-26T10:56:15.227Z,11.30
2019-02-26T10:58:48.652Z,11.40
2019-02-26T11:01:23.634Z,11.50
2019-02-26T11:03:57.253Z,11.60
2019-02-26T11:06:33.148Z,11.70
2019-02-26T11:09:08.924Z,11.80
2019-02-26T11:11:42.432Z,11.80
2019-02-26T11:14:17.390Z,11.90
2019-02-26T11:16:51.029Z,12.00
2019-02-26T11:19:25.338Z,12.20
2019-02-26T11:22:00.803Z,12.20
2019-02-26T11:24:36.176Z,12.30
2019-02-26T11:27:10.052Z,12.40
2019-02-26T11:29:43.923Z,12.50
2019-02-26T11:32:17.362Z,12.60
2019-02-26T11:34:52.647Z,12.70
2019-02-26T11:37:27.250Z,12.70
2019-02-26T11:40:02.864Z,12.80
2019-02-26T11:42:36.286Z,12.80
2019-02-26T11:45:17.485Z,12.90
2019-02-26T11:47:50.810Z,13.00
2019-02-26T11:50:28.007Z,13.20
2019-02-26T11:53:01.007Z,13.20
2019-02-26T11:55:37.299Z,13.30
2019-02-26T11:58:10.819Z,13.50
2019-02-26T12:00:50.545Z,13.70
2019-02-26T12:03:27.186Z,13.90
2019-02-26T12:06:01.900Z,14.00
2019-02-26T12:08:34.566Z,14.20
2019-02-26T12:11:12.572Z,14.40
2019-02-26T12:13:44.711Z,14.50
2019-02-26T12:16:18.513Z,14.70
2019-02-26T12:18:51.957Z,14.90
2019-02-26T12:21:27.564Z,15.00
2019-02-26T12:24:01.593Z,15.10
2019-02-26T12:26:35.714Z,15.20
2019-02-26T12:29:09.153Z,15.30
2019-02-26T12:31:42.592Z,15.40
2019-02-26T12:34:17.607Z,15.60
2019-02-26T12:36:53.338Z,15.70
2019-02-26T12:39:29.146Z,15.80
2019-02-26T12:42:01.501Z,16.00
2019-02-26T12:44:37.992Z,16.10
2019-02-26T12:47:11.991Z,16.10
2019-02-26T12:49:45.287Z,16.20
2019-02-26T12:52:21.229Z,16.30
2019-02-26T12:54:55.010Z,16.40
2019-02-26T12:57:31.541Z,16.50
2019-02-26T13:00:16.662Z,16.50
2019-02-26T13:02:52.297Z,16.60
2019-02-26T13:05:26.168Z,16.70
2019-02-26T13:07:59.602Z,16.80
2019-02-26T13:10:33.038Z,16.90
2019-02-26T13:13:07.499Z,17.00
2019-02-26T13:15:41.776Z,17.00
2019-02-26T13:18:15.198Z,17.10
2019-02-26T13:20:52.131Z,17.20
2019-02-26T13:23:23.781Z,17.30
2019-02-26T13:25:57.244Z,17.40
2019-02-26T13:28:30.658Z,17.50
2019-02-26T13:31:04.967Z,17.60
2019-02-26T13:33:42.137Z,17.70
2019-02-26T13:36:16.326Z,17.70
2019-02-26T13:38:49.971Z,17.80
2019-02-26T13:43:58.610Z,17.80
2019-02-26T13:46:32.048Z,17.80
2019-02-26T13:49:05.712Z,17.70
2019-02-26T13:51:39.149Z,17.70
2019-02-26T13:54:12.577Z,17.70
2019-02-26T13:56:46.021Z,17.80
2019-02-26T13:59:19.439Z,17.80
2019-02-26T14:01:52.873Z,17.80
2019-02-26T14:04:26.677Z,17.90
2019-02-26T14:07:00.176Z,17.90
2019-02-26T14:09:33.611Z,18.00
2019-02-26T14:12:07.044Z,18.00
2019-02-26T14:14:40.464Z,18.10
2019-02-26T14:17:13.913Z,18.10
2019-02-26T14:19:47.332Z,18.20
2019-02-26T14:22:20.772Z,18.40
2019-02-26T14:24:54.211Z,18.50
2019-02-26T14:27:27.641Z,18.70
2019-02-26T14:30:01.089Z,18.90
2019-02-26T14:32:35.032Z,19.10
2019-02-26T14:35:10.988Z,19.30
2019-02-26T14:37:44.420Z,19.60
2019-02-26T14:40:19.100Z,19.90
2019-02-26T14:42:52.528Z,20.10
2019-02-26T14:45:27.197Z,20.40
2019-02-26T14:48:00.628Z,20.80
2019-02-26T14:50:34.558Z,21.00
2019-02-26T14:53:07.984Z,21.10
2019-02-26T14:55:41.409Z,21.00
2019-02-26T14:58:14.844Z,20.90
2019-02-26T15:00:57.185Z,21.00
2019-02-26T15:03:23.440Z,21.20
2019-02-26T15:05:56.861Z,21.30
2019-02-26T15:08:30.575Z,21.40
2019-02-26T15:11:04.008Z,21.60
2019-02-26T15:13:37.441Z,22.10
2019-02-26T15:16:10.857Z,22.70
2019-02-26T15:18:44.296Z,23.10
2019-02-26T15:21:17.740Z,22.90
2019-02-26T15:23:51.172Z,23.00
2019-02-26T15:26:24.590Z,23.50
2019-02-26T15:28:58.032Z,23.90
2019-02-26T15:31:31.619Z,24.00
2019-02-26T15:34:05.804Z,23.80
2019-02-26T15:36:39.744Z,23.30
2019-02-26T15:39:13.193Z,22.80
2019-02-26T15:41:48.203Z,22.30
2019-02-26T15:44:21.785Z,21.80
2019-02-26T15:46:55.204Z,21.30
2019-02-26T15:49:28.665Z,20.80
2019-02-26T15:52:02.152Z,20.40
2019-02-26T15:54:35.623Z,20.00
2019-02-26T15:57:09.122Z,19.60
2019-02-26T15:59:42.633Z,19.30
2019-02-26T16:02:16.072Z,19.00
2019-02-26T16:04:49.894Z,18.70
2019-02-26T16:10:44.700Z,18.20
2019-02-26T16:13:18.174Z,17.80
2019-02-26T16:15:51.613Z,17.60
2019-02-26T16:18:25.040Z,17.30
2019-02-26T16:20:58.489Z,17.10
2019-02-26T16:23:31.919Z,16.90
2019-02-26T16:26:05.622Z,16.70
2019-02-26T16:28:40.501Z,16.50
2019-02-26T16:31:13.944Z,16.30
2019-02-26T16:33:47.446Z,16.20
2019-02-26T16:36:21.265Z,16.10
2019-02-26T16:38:54.693Z,15.90
2019-02-26T16:41:28.132Z,15.70
2019-02-26T16:44:01.561Z,15.60
2019-02-26T16:46:35.484Z,15.40
2019-02-26T16:49:08.916Z,15.30
2019-02-26T16:51:42.361Z,15.10
2019-02-26T16:54:15.788Z,15.00
2019-02-26T16:56:49.234Z,14.80
2019-02-26T16:59:22.725Z,14.70
2019-02-26T17:01:56.160Z,14.60
2019-02-26T17:04:30.894Z,14.50
2019-02-26T17:07:04.638Z,14.40
2019-02-26T17:09:38.325Z,14.30
2019-02-26T17:12:11.920Z,14.20
2019-02-26T17:14:45.438Z,14.10
2019-02-26T17:17:18.937Z,14.00
2019-02-26T17:19:52.383Z,13.90
2019-02-26T17:22:25.836Z,13.70
2019-02-26T17:24:59.748Z,13.70
2019-02-26T17:27:33.186Z,13.60
2019-02-26T17:30:09.920Z,13.50
2019-02-26T17:32:43.432Z,13.40
2019-02-26T17:35:17.196Z,13.30
2019-02-26T17:37:50.648Z,13.20
2019-02-26T17:40:25.509Z,13.10
2019-02-26T17:42:58.956Z,13.10
2019-02-26T17:45:37.375Z,13.00
2019-02-26T17:48:11.308Z,13.00
2019-02-26T17:50:45.864Z,12.90
2019-02-26T17:53:20.061Z,12.80
2019-02-26T17:55:53.496Z,12.70
2019-02-26T17:58:26.941Z,12.60
2019-02-26T18:01:00.372Z,12.50
2019-02-26T18:03:33.800Z,12.40
2019-02-26T18:06:07.252Z,12.30
2019-02-26T18:08:40.688Z,12.30
2019-02-26T18:11:14.156Z,12.20
2019-02-26T18:13:47.580Z,12.20
2019-02-26T18:16:21.049Z,12.10
2019-02-26T18:18:54.480Z,12.10
2019-02-26T18:21:27.954Z,12.00
2019-02-26T18:24:01.377Z,11.90
2019-02-26T18:26:34.832Z,11.80
2019-02-26T18:29:08.256Z,11.80
2019-02-26T18:31:41.700Z,11.70
2019-02-26T18:34:15.133Z,11.60
2019-02-26T18:36:48.608Z,11.60
2019-02-26T18:39:22.604Z,11.50
2019-02-26T18:41:56.685Z,11.40
2019-02-26T18:44:30.115Z,11.30
2019-02-26T18:47:04.872Z,11.20
2019-02-26T18:49:39.280Z,11.20
2019-02-26T18:52:12.717Z,11.10
2019-02-26T18:54:46.144Z,11.00
2019-02-26T18:57:19.628Z,11.00
2019-02-26T18:59:53.718Z,10.90
2019-02-26T19:02:27.920Z,10.90
2019-02-26T19:05:01.361Z,10.80
2019-02-26T19:07:34.917Z,10.70
2019-02-26T19:10:17.479Z,10.70
2019-02-26T19:12:49.672Z,10.60
2019-02-26T19:15:28.106Z,10.50
2019-02-26T19:18:04.219Z,10.50
2019-02-26T19:20:39.100Z,10.50
2019-02-26T19:23:12.831Z,10.40
2019-02-26T19:25:46.317Z,10.30
2019-02-26T19:28:19.932Z,10.20
2019-02-26T19:30:53.356Z,10.10
2019-02-26T19:33:26.801Z,10.10
2019-02-26T19:36:00.263Z,10.00
2019-02-26T19:38:33.689Z,9.90
2019-02-26T19:41:12.433Z,9.90
2019-02-26T19:43:45.358Z,9.90
2019-02-26T19:46:18.787Z,9.80
2019-02-26T19:48:52.222Z,9.80
2019-02-26T19:51:25.657Z,9.80
2019-02-26T19:53:59.160Z,9.80
2019-02-26T19:56:32.578Z,9.70
2019-02-26T19:59:06.483Z,9.60
2019-02-26T20:01:39.905Z,9.50
2019-02-26T20:04:13.336Z,9.40
2019-02-26T20:06:46.768Z,9.40
2019-02-26T20:09:20.779Z,9.30
2019-02-26T20:11:56.191Z,9.30
2019-02-26T20:14:29.354Z,9.20
2019-02-26T20:17:13.664Z,9.20
2019-02-26T20:19:37.947Z,9.20
2019-02-26T20:22:11.373Z,9.10
2019-02-26T20:24:44.813Z,9.10
2019-02-26T20:27:21.600Z,9.00
2019-02-26T20:29:53.400Z,8.90
2019-02-26T20:32:30.916Z,8.90
2019-02-26T20:35:02.000Z,8.90
2019-02-26T20:37:35.425Z,8.70
2019-02-26T20:40:17.629Z,8.60
2019-02-26T20:42:51.056Z,8.50
2019-02-26T20:45:24.487Z,8.40
2019-02-26T20:47:57.908Z,8.30
2019-02-26T20:50:31.357Z,8.30
2019-02-26T20:53:06.032Z,8.20
2019-02-26T20:55:39.982Z,8.20
2019-02-26T20:58:13.389Z,8.20
2019-02-26T21:00:48.242Z,8.20
2019-02-26T21:03:21.843Z,8.20
2019-02-26T21:05:56.151Z,8.20
2019-02-26T21:08:30.924Z,8.10
2019-02-26T21:11:05.174Z,8.10
2019-02-26T21:13:38.597Z,8.10
2019-02-26T21:16:12.033Z,8.10
2019-02-26T21:18:45.462Z,8.00
2019-02-26T21:21:18.976Z,8.00
2019-02-26T21:23:52.396Z,7.90
2019-02-26T21:26:25.835Z,7.90
2019-02-26T21:28:59.252Z,7.80
2019-02-26T21:31:32.696Z,7.80
2019-02-26T21:34:06.143Z,7.80
2019-02-26T21:36:39.669Z,7.70
2019-02-26T21:39:13.089Z,7.60
2019-02-26T21:41:46.605Z,7.50
2019-02-26T21:44:20.066Z,7.40
2019-02-26T21:46:53.732Z,7.40
2019-02-26T21:49:28.693Z,7.30
2019-02-26T21:52:02.132Z,7.30
2019-02-26T21:54:35.545Z,7.30
2019-02-26T21:57:08.984Z,7.30
2019-02-26T21:59:49.852Z,7.30
2019-02-26T22:02:18.875Z,7.30
2019-02-26T22:04:52.877Z,7.30
2019-02-26T22:07:26.316Z,7.20
2019-02-26T22:09:59.749Z,7.20
2019-02-26T22:12:33.182Z,7.20
2019-02-26T22:15:10.887Z,7.10
2019-02-26T22:17:44.658Z,7.10
2019-02-26T22:20:26.610Z,7.10
2019-02-26T22:22:54.474Z,7.00
2019-02-26T22:25:29.256Z,7.00
2019-02-26T22:28:03.003Z,7.00
2019-02-26T22:30:36.425Z,7.00
2019-02-26T22:33:09.863Z,7.00
2019-02-26T22:35:43.286Z,6.90
2019-02-26T22:38:16.727Z,6.80
2019-02-26T22:40:50.154Z,6.80
2019-02-26T22:43:23.585Z,6.80
2019-02-26T22:46:00.726Z,6.70
2019-02-26T22:48:32.168Z,6.70
2019-02-26T22:51:05.597Z,6.70
2019-02-26T22:53:39.040Z,6.60
2019-02-26T22:56:12.460Z,6.60
2019-02-26T22:58:45.907Z,6.60
2019-02-26T23:01:30.283Z,6.50
2019-02-26T23:03:58.652Z,6.60
2019-02-26T23:06:32.464Z,6.60
2019-02-26T23:09:08.298Z,6.60
2019-02-26T23:11:42.182Z,6.60
2019-02-26T23:14:15.938Z,6.50
2019-02-26T23:16:51.883Z,6.50
2019-02-26T23:19:24.914Z,6.50
2019-02-26T23:21:58.415Z,6.50
2019-02-26T23:24:32.028Z,6.40
2019-02-26T23:27:06.194Z,6.40
2019-02-26T23:29:42.282Z,6.30
2019-02-26T23:32:16.160Z,6.40
2019-02-26T23:35:03.642Z,6.30
2019-02-26T23:37:37.132Z,6.30
2019-02-26T23:40:12.299Z,6.30
2019-02-26T23:42:45.779Z,6.20
2019-02-26T23:45:19.219Z,6.20
2019-02-26T23:47:52.639Z,6.20
2019-02-26T23:50:26.079Z,6.20
2019-02-26T23:53:01.104Z,6.10
2019-02-26T23:55:34.727Z,6.10
2019-02-26T23:58:08.143Z,6.00
